Airport ID:KO69
Update Time (UTC):19/05/2019 11:24
Wind Speed (Knots):3
Wind Direction (Magnetic):50
Temperature (°C):8
Dew Point (°C):8
Humidity (%):100
Altimeter (inHg):29.71
Density Altitude (Feet):
Visibility (Miles):9
Clouds (Hundreds of feet):SCT021 BKN050 OVC055
Present Weather:
METAR:METAR KO69 191120Z AUTO 05003KT 8SM SCT022 OVC050 08/08 A2971 RMK A01

The data displayed is for advisory purposes only and is not to be used for flight planning or operations.

This page is not automatically refreshed. Reload the page to see current data.